Time;durP1;ratioP1;P1;durP2;ratioP2;P2;SDS_P1;SDS_P2;PMS_P1;PMS_P2;Temp;Humidity;BMP_temperature;BMP_pressure;BME280_temperature;BME280_humidity;BME280_pressure;Samples;Min_cycle;Max_cycle;Signal;HPM_P1;HPM_P2
2021/07/24 00:00:38;;;;;;;20.92;15.82;;;14.30;99.90;;;;;;4874516;29;20048;-74
2021/07/24 00:03:04;;;;;;;23.27;16.30;;;14.20;99.90;;;;;;4863665;29;20040;-74
2021/07/24 00:05:30;;;;;;;23.50;16.63;;;14.20;99.90;;;;;;4877985;29;20044;-75
2021/07/24 00:07:57;;;;;;;19.77;15.32;;;14.20;99.90;;;;;;4862624;29;20571;-75
2021/07/24 00:10:22;;;;;;;20.23;15.75;;;14.20;99.90;;;;;;4862347;29;20127;-74
2021/07/24 00:12:51;;;;;;;24.77;16.63;;;14.20;99.90;;;;;;4876970;29;20573;-73
2021/07/24 00:15:17;;;;;;;22.15;15.95;;;14.20;99.90;;;;;;4897661;29;20070;-75
2021/07/24 00:17:43;;;;;;;20.50;16.52;;;14.20;99.90;;;;;;4893744;29;20044;-75
2021/07/24 00:20:10;;;;;;;24.63;15.57;;;14.20;99.90;;;;;;4891259;29;20040;-74
2021/07/24 00:22:36;;;;;;;21.42;15.90;;;14.10;99.90;;;;;;4876608;29;20040;-74
2021/07/24 00:25:04;;;;;;;22.83;16.02;;;14.10;99.90;;;;;;4878018;29;20453;-74
2021/07/24 00:27:30;;;;;;;21.48;16.40;;;14.10;99.90;;;;;;4862180;29;20048;-74
2021/07/24 00:29:56;;;;;;;22.92;16.65;;;14.10;99.90;;;;;;4875643;29;20052;-75
2021/07/24 00:32:22;;;;;;;21.42;16.25;;;14.00;99.90;;;;;;4910821;29;20036;-80
2021/07/24 00:34:48;;;;;;;21.92;16.40;;;14.00;99.90;;;;;;4879478;29;20044;-81
2021/07/24 00:37:17;;;;;;;24.35;16.83;;;13.90;99.90;;;;;;4890364;29;20055;-75
2021/07/24 00:39:43;;;;;;;23.25;17.10;;;13.90;99.90;;;;;;4909587;29;20538;-75
2021/07/24 00:42:22;;;;;;;20.52;15.40;;;13.90;99.90;;;;;;4895637;29;20134;-74
2021/07/24 00:44:50;;;;;;;19.08;14.35;;;13.90;99.90;;;;;;4910760;29;20127;-74
2021/07/24 00:47:24;;;;;;;18.35;13.88;;;13.80;99.90;;;;;;4908829;29;20044;-75
2021/07/24 00:49:51;;;;;;;21.23;14.68;;;13.80;99.90;;;;;;4892488;29;22338;-74
2021/07/24 00:52:17;;;;;;;22.80;16.63;;;13.80;99.90;;;;;;4894895;29;20069;-74
2021/07/24 00:54:43;;;;;;;26.08;17.85;;;13.70;99.90;;;;;;4890685;29;20507;-74
2021/07/24 00:57:12;;;;;;;26.92;18.38;;;13.70;99.90;;;;;;4863091;29;20040;-74
2021/07/24 00:59:39;;;;;;;24.60;16.30;;;13.70;99.90;;;;;;4912800;29;20044;-75
2021/07/24 01:02:05;;;;;;;28.70;17.35;;;13.80;99.90;;;;;;4877185;29;20072;-75
2021/07/24 01:04:31;;;;;;;22.95;15.38;;;13.70;99.90;;;;;;4911719;29;20872;-75
2021/07/24 01:06:58;;;;;;;28.10;19.10;;;13.70;99.90;;;;;;4913775;29;20048;-75
2021/07/24 01:09:26;;;;;;;29.00;18.40;;;13.70;99.90;;;;;;4894339;29;20135;-75
2021/07/24 01:11:52;;;;;;;28.08;18.35;;;13.80;99.90;;;;;;4912572;29;20146;-75
2021/07/24 01:14:18;;;;;;;27.50;17.83;;;13.80;99.90;;;;;;4893162;29;20119;-75
2021/07/24 01:16:45;;;;;;;27.02;17.35;;;13.70;99.90;;;;;;4893017;29;20059;-76
2021/07/24 01:19:14;;;;;;;28.38;19.05;;;13.70;99.90;;;;;;4865918;29;20044;-75
2021/07/24 01:21:40;;;;;;;29.77;19.58;;;13.70;99.90;;;;;;4891915;29;20124;-76
2021/07/24 01:24:06;;;;;;;30.40;18.92;;;13.70;99.90;;;;;;4895722;29;20478;-75
2021/07/24 01:26:34;;;;;;;29.15;18.48;;;13.70;99.90;;;;;;4889790;29;20040;-75
2021/07/24 01:29:01;;;;;;;30.50;19.20;;;13.70;99.90;;;;;;4878919;29;20478;-76
2021/07/24 01:31:27;;;;;;;31.35;17.77;;;13.70;99.90;;;;;;4891833;29;20145;-74
2021/07/24 01:33:53;;;;;;;29.70;18.95;;;13.70;99.90;;;;;;4892847;29;20119;-75
2021/07/24 01:36:19;;;;;;;31.77;20.17;;;13.60;99.90;;;;;;4879977;29;20052;-80
2021/07/24 01:38:48;;;;;;;30.83;18.55;;;13.60;99.90;;;;;;4912737;29;20072;-74
2021/07/24 01:41:15;;;;;;;29.60;19.08;;;13.70;99.90;;;;;;4910137;29;20407;-76
2021/07/24 01:43:41;;;;;;;29.58;18.98;;;13.60;99.90;;;;;;4889697;29;20145;-76
2021/07/24 01:46:07;;;;;;;33.17;19.50;;;13.60;99.90;;;;;;4909002;29;20051;-75
2021/07/24 01:53:49;;;;;;;32.15;17.67;;;13.60;99.90;;;;;;4908205;29;20044;-74
2021/07/24 01:56:19;;;;;;;28.70;18.42;;;13.50;99.90;;;;;;4907785;29;20443;-79
2021/07/24 01:58:45;;;;;;;26.85;16.83;;;13.50;99.90;;;;;;4893940;29;20056;-81
2021/07/24 02:01:12;;;;;;;24.55;17.02;;;13.50;99.90;;;;;;4907072;29;20400;-80
2021/07/24 02:03:44;;;;;;;27.30;17.63;;;13.50;99.90;;;;;;4876871;29;20136;-82
2021/07/24 02:06:13;;;;;;;27.17;18.30;;;13.50;99.90;;;;;;4909748;29;20044;-82
2021/07/24 02:08:48;;;;;;;28.98;17.67;;;13.50;99.90;;;;;;4893836;29;20047;-77
2021/07/24 02:11:16;;;;;;;29.10;17.45;;;13.50;99.90;;;;;;4896375;29;20406;-80
2021/07/24 02:13:42;;;;;;;27.70;18.00;;;13.40;99.90;;;;;;4897635;29;20043;-81
2021/07/24 02:16:09;;;;;;;27.45;17.08;;;13.40;99.90;;;;;;4913610;29;20051;-77
2021/07/24 02:18:35;;;;;;;26.80;17.40;;;13.40;99.90;;;;;;4876425;29;20530;-75
2021/07/24 02:21:02;;;;;;;29.23;17.52;;;13.40;99.90;;;;;;4863069;29;20055;-75
2021/07/24 02:23:29;;;;;;;31.20;18.65;;;13.40;99.90;;;;;;4906446;29;21771;-76
2021/07/24 02:25:55;;;;;;;31.83;18.83;;;13.40;99.90;;;;;;4913284;29;20068;-76
2021/07/24 02:28:21;;;;;;;29.48;18.25;;;13.30;99.90;;;;;;4863898;29;20591;-75
2021/07/24 02:30:47;;;;;;;29.27;17.67;;;13.30;99.90;;;;;;4895772;29;20067;-81
2021/07/24 02:33:13;;;;;;;29.02;17.90;;;13.30;99.90;;;;;;4896571;29;20127;-81
2021/07/24 02:35:39;;;;;;;26.67;17.05;;;13.30;99.90;;;;;;4871276;29;20056;-82
2021/07/24 02:38:06;;;;;;;28.00;17.85;;;13.20;99.90;;;;;;4896092;29;20036;-82
2021/07/24 02:40:33;;;;;;;34.25;18.02;;;13.20;99.90;;;;;;4861514;29;20036;-82
2021/07/24 02:42:59;;;;;;;33.22;19.90;;;13.10;99.90;;;;;;4877846;29;20143;-81
2021/07/24 02:45:25;;;;;;;30.65;19.42;;;13.10;99.90;;;;;;4904832;29;20507;-81
2021/07/24 02:47:51;;;;;;;36.67;20.25;;;13.10;99.90;;;;;;4888990;29;20574;-81
2021/07/24 02:50:17;;;;;;;33.80;19.67;;;13.10;99.90;;;;;;4887353;29;20048;-76
2021/07/24 02:52:43;;;;;;;35.80;20.45;;;13.10;99.90;;;;;;4911604;29;20052;-77
2021/07/24 02:55:10;;;;;;;31.55;18.85;;;13.10;99.90;;;;;;4895412;29;20706;-75
2021/07/24 02:57:39;;;;;;;32.20;20.10;;;13.00;99.90;;;;;;4895487;29;20562;-75
2021/07/24 03:00:05;;;;;;;33.50;18.55;;;13.00;99.90;;;;;;4902736;29;20511;-75
2021/07/24 03:02:32;;;;;;;36.55;20.55;;;13.00;99.90;;;;;;4877828;29;20155;-74
2021/07/24 03:04:58;;;;;;;35.67;20.60;;;13.00;99.90;;;;;;4879302;29;20044;-81
2021/07/24 03:07:24;;;;;;;41.72;21.13;;;13.00;99.90;;;;;;4863501;29;20145;-81
2021/07/24 03:09:50;;;;;;;38.58;21.63;;;13.00;99.90;;;;;;4888129;29;20396;-79
2021/07/24 03:12:19;;;;;;;39.83;22.63;;;13.00;99.90;;;;;;4904385;29;20510;-76
2021/07/24 03:14:45;;;;;;;40.50;22.30;;;13.00;99.90;;;;;;4863638;29;20048;-76
2021/07/24 03:17:11;;;;;;;44.55;22.20;;;13.00;99.90;;;;;;4892292;29;20044;-75
2021/07/24 03:19:37;;;;;;;45.97;24.08;;;13.00;99.90;;;;;;4884894;29;20058;-77
2021/07/24 03:22:06;;;;;;;44.97;23.02;;;13.10;99.90;;;;;;4874807;29;20060;-76
2021/07/24 03:24:32;;;;;;;44.17;22.60;;;13.10;99.90;;;;;;4908059;29;20055;-76
2021/07/24 03:26:58;;;;;;;38.50;22.63;;;13.10;99.90;;;;;;4872555;29;20764;-77
2021/07/24 03:29:24;;;;;;;40.30;21.95;;;13.10;99.90;;;;;;4862412;29;20055;-76
2021/07/24 03:31:50;;;;;;;43.35;21.60;;;13.00;99.90;;;;;;4895003;29;20123;-76
2021/07/24 03:34:16;;;;;;;42.85;22.95;;;13.00;99.90;;;;;;4867010;29;20468;-77
2021/07/24 03:36:42;;;;;;;43.40;23.13;;;13.10;99.90;;;;;;4873278;29;20044;-75
2021/07/24 03:39:08;;;;;;;43.28;22.80;;;13.10;99.90;;;;;;4878028;29;20056;-75
2021/07/24 03:41:35;;;;;;;41.45;22.13;;;13.10;99.90;;;;;;4891727;29;20059;-77
2021/07/24 03:44:02;;;;;;;44.47;22.38;;;13.00;99.90;;;;;;4910999;29;20063;-76
2021/07/24 03:46:28;;;;;;;40.63;22.17;;;13.00;99.90;;;;;;4893548;29;20044;-81
2021/07/24 03:48:55;;;;;;;41.78;22.45;;;13.00;99.90;;;;;;4886633;29;20044;-82
2021/07/24 03:51:21;;;;;;;39.67;21.92;;;13.10;99.90;;;;;;4893838;29;20063;-82
2021/07/24 03:53:47;;;;;;;41.88;22.60;;;13.10;99.90;;;;;;4910443;29;20122;-76
2021/07/24 03:56:18;;;;;;;44.92;22.35;;;13.10;99.90;;;;;;4855757;29;20524;-77
2021/07/24 03:58:46;;;;;;;46.63;22.08;;;13.00;99.90;;;;;;4888826;29;20044;-76
2021/07/24 04:01:12;;;;;;;40.45;21.95;;;13.10;99.90;;;;;;4909237;29;20051;-77
2021/07/24 04:03:38;;;;;;;43.53;21.23;;;13.10;99.90;;;;;;4876860;29;20040;-76
2021/07/24 04:06:07;;;;;;;45.92;21.65;;;13.10;99.90;;;;;;4875081;29;20071;-77
2021/07/24 04:08:34;;;;;;;39.42;20.77;;;13.10;99.90;;;;;;4889256;29;20071;-77
2021/07/24 04:11:02;;;;;;;40.88;21.50;;;13.20;99.90;;;;;;4885671;29;20107;-77
2021/07/24 04:13:29;;;;;;;39.33;20.17;;;13.20;99.90;;;;;;4885021;29;20054;-77
2021/07/24 04:15:55;;;;;;;38.80;20.63;;;13.20;99.90;;;;;;4877482;29;20048;-77
2021/07/24 04:18:24;;;;;;;37.10;20.88;;;13.20;99.90;;;;;;4870537;29;20415;-81
2021/07/24 04:20:51;;;;;;;39.65;21.50;;;13.30;99.90;;;;;;4856517;29;20048;-79
2021/07/24 04:23:17;;;;;;;39.22;21.52;;;13.30;99.90;;;;;;4907294;29;20463;-76
2021/07/24 04:25:43;;;;;;;40.28;21.52;;;13.30;99.90;;;;;;4906404;29;20110;-75
2021/07/24 04:28:12;;;;;;;40.03;21.02;;;13.40;99.90;;;;;;4858131;29;20359;-78
2021/07/24 04:30:38;;;;;;;38.65;21.20;;;13.40;99.90;;;;;;4873891;29;20053;-77
2021/07/24 04:33:06;;;;;;;38.20;20.45;;;13.40;99.90;;;;;;4907876;29;20126;-77
2021/07/24 04:35:32;;;;;;;37.92;20.33;;;13.50;99.90;;;;;;4870385;29;20142;-76
2021/07/24 04:37:58;;;;;;;32.70;21.13;;;13.50;99.90;;;;;;4874611;29;20048;-77
2021/07/24 04:40:24;;;;;;;35.58;21.55;;;13.60;99.90;;;;;;4858079;29;20067;-78
2021/07/24 04:42:50;;;;;;;32.05;19.38;;;13.60;99.90;;;;;;4871462;29;20040;-78
2021/07/24 04:45:16;;;;;;;35.38;19.67;;;13.60;99.90;;;;;;4874035;29;20044;-78
2021/07/24 04:47:43;;;;;;;37.35;20.48;;;13.60;99.90;;;;;;4844148;29;20421;-77
2021/07/24 04:50:09;;;;;;;31.75;19.38;;;13.70;99.90;;;;;;4858414;29;20085;-78
2021/07/24 04:52:37;;;;;;;34.88;19.73;;;13.80;99.90;;;;;;4861947;29;20051;-78
2021/07/24 04:55:05;;;;;;;34.50;19.95;;;13.80;99.90;;;;;;4880664;29;20043;-78
2021/07/24 04:57:33;;;;;;;32.45;18.80;;;13.80;99.90;;;;;;4911263;29;20480;-76
2021/07/24 05:00:00;;;;;;;32.35;19.95;;;13.90;99.90;;;;;;4895658;29;20079;-77
2021/07/24 05:02:27;;;;;;;35.63;20.70;;;13.90;99.90;;;;;;4875527;29;20036;-76
2021/07/24 05:04:54;;;;;;;32.72;20.25;;;14.00;99.90;;;;;;4892449;29;20039;-76
2021/07/24 05:07:22;;;;;;;32.58;19.90;;;14.10;99.90;;;;;;4889065;29;20444;-75
2021/07/24 05:09:47;;;;;;;32.72;19.35;;;14.10;99.90;;;;;;4888847;29;20060;-75
2021/07/24 05:12:13;;;;;;;32.13;19.38;;;14.10;99.90;;;;;;4890115;29;20064;-75
2021/07/24 05:14:43;;;;;;;30.85;19.10;;;14.20;99.90;;;;;;4870831;29;20505;-76
2021/07/24 05:17:16;;;;;;;34.50;19.65;;;14.20;99.90;;;;;;4893244;29;20044;-77
2021/07/24 05:19:43;;;;;;;30.45;18.58;;;14.20;99.90;;;;;;4910515;29;20047;-76
2021/07/24 05:22:11;;;;;;;29.67;18.38;;;14.40;99.90;;;;;;4873146;29;20055;-75
2021/07/24 05:24:38;;;;;;;32.13;18.85;;;14.40;99.90;;;;;;4913047;29;20404;-76
2021/07/24 05:27:05;;;;;;;31.15;18.08;;;14.40;99.90;;;;;;4877956;29;20040;-76
2021/07/24 05:29:31;;;;;;;28.75;18.73;;;14.50;99.90;;;;;;4877851;29;20055;-76
2021/07/24 05:31:57;;;;;;;31.00;18.95;;;14.60;99.90;;;;;;4896684;29;20051;-76
2021/07/24 05:34:23;;;;;;;29.15;17.77;;;14.60;99.90;;;;;;4879328;29;20135;-77
2021/07/24 05:36:49;;;;;;;27.80;18.25;;;14.70;99.90;;;;;;4887189;29;21121;-74
2021/07/24 05:39:19;;;;;;;32.60;19.17;;;14.70;99.90;;;;;;4864466;29;20103;-76
2021/07/24 05:41:45;;;;;;;32.75;19.00;;;14.80;99.90;;;;;;4891365;29;20448;-77
2021/07/24 05:44:13;;;;;;;27.83;17.52;;;14.90;99.90;;;;;;4895979;29;20135;-76
2021/07/24 05:46:40;;;;;;;29.23;18.27;;;15.00;99.90;;;;;;4891967;29;20147;-75
2021/07/24 05:49:06;;;;;;;27.90;18.60;;;15.00;99.90;;;;;;4877974;29;20052;-81
2021/07/24 05:51:33;;;;;;;26.38;17.42;;;15.10;99.90;;;;;;4913031;29;20094;-80
2021/07/24 05:53:58;;;;;;;28.05;18.17;;;15.20;99.90;;;;;;4877018;29;21962;-83
2021/07/24 05:56:24;;;;;;;25.77;17.80;;;15.30;99.90;;;;;;4879711;29;20509;-82
2021/07/24 05:58:50;;;;;;;24.75;18.17;;;15.40;99.90;;;;;;4861515;29;20076;-82
2021/07/24 06:01:16;;;;;;;28.65;17.85;;;15.50;99.90;;;;;;4890595;29;20127;-82
2021/07/24 06:03:42;;;;;;;25.45;17.27;;;15.60;99.90;;;;;;4862408;29;20052;-82
2021/07/24 06:06:09;;;;;;;22.80;15.40;;;15.60;99.90;;;;;;4892126;29;20051;-83
2021/07/24 06:08:37;;;;;;;26.27;16.38;;;15.70;99.90;;;;;;4910970;29;20040;-79
2021/07/24 06:11:04;;;;;;;26.75;16.02;;;15.80;99.90;;;;;;4877522;29;20044;-84
2021/07/24 06:13:34;;;;;;;24.38;16.98;;;15.90;99.90;;;;;;4891457;29;20074;-81
2021/07/24 06:16:01;;;;;;;23.92;17.25;;;15.90;99.90;;;;;;4892871;29;20111;-81
2021/07/24 06:18:27;;;;;;;26.85;17.30;;;16.00;99.90;;;;;;4878673;29;20150;-78
2021/07/24 06:20:53;;;;;;;22.45;15.73;;;16.00;99.90;;;;;;4890995;29;20562;-82
2021/07/24 06:23:19;;;;;;;26.13;16.40;;;16.10;99.90;;;;;;4910814;29;20064;-80
2021/07/24 06:25:47;;;;;;;22.52;16.33;;;16.10;99.90;;;;;;4909269;29;20503;-82
2021/07/24 06:28:13;;;;;;;23.00;15.63;;;16.20;99.90;;;;;;4876683;29;20127;-80
2021/07/24 06:30:40;;;;;;;24.50;16.27;;;16.20;99.90;;;;;;4910342;29;20071;-76
2021/07/24 06:33:06;;;;;;;23.67;15.82;;;16.30;99.90;;;;;;4876033;29;20043;-78
2021/07/24 06:35:36;;;;;;;20.52;15.55;;;16.30;99.90;;;;;;4906835;29;20040;-77
2021/07/24 06:38:02;;;;;;;22.00;14.67;;;16.40;99.90;;;;;;4892454;29;20047;-75
2021/07/24 06:40:28;;;;;;;21.42;14.68;;;16.50;99.90;;;;;;4890765;29;20076;-77
2021/07/24 06:42:54;;;;;;;20.17;14.50;;;16.50;99.90;;;;;;4878439;29;20139;-75
2021/07/24 06:45:22;;;;;;;19.65;14.43;;;16.60;99.90;;;;;;4889566;29;20047;-76
2021/07/24 06:47:48;;;;;;;19.80;13.98;;;16.70;99.90;;;;;;4887389;29;20066;-77
2021/07/24 06:50:13;;;;;;;19.77;14.65;;;16.80;99.90;;;;;;4890789;29;20376;-75
2021/07/24 06:52:39;;;;;;;19.90;14.57;;;16.90;99.90;;;;;;4892897;29;20059;-78
2021/07/24 06:55:07;;;;;;;20.50;14.65;;;17.00;99.90;;;;;;4862013;29;20052;-78
2021/07/24 06:57:33;;;;;;;23.55;14.88;;;17.10;99.70;;;;;;4860690;29;20044;-75
2021/07/24 06:59:59;;;;;;;18.80;13.90;;;17.10;99.40;;;;;;4875947;29;20048;-76
2021/07/24 07:02:25;;;;;;;18.67;14.80;;;17.20;99.60;;;;;;4908516;29;20051;-78
2021/07/24 07:04:51;;;;;;;19.35;13.45;;;17.30;99.00;;;;;;4877179;29;20040;-77
2021/07/24 07:07:20;;;;;;;17.67;13.15;;;17.40;99.20;;;;;;4863153;29;20411;-76
2021/07/24 07:09:46;;;;;;;16.17;12.57;;;17.50;99.90;;;;;;4890920;29;20036;-77
2021/07/24 07:12:15;;;;;;;16.98;12.20;;;17.60;99.30;;;;;;4910026;29;20049;-75
2021/07/24 07:14:41;;;;;;;16.95;11.75;;;17.70;99.00;;;;;;4893353;29;20601;-81
2021/07/24 07:17:07;;;;;;;17.13;11.77;;;17.90;98.30;;;;;;4893883;29;20500;-76
2021/07/24 07:19:36;;;;;;;14.45;10.50;;;18.00;97.90;;;;;;4845590;29;20135;-77
2021/07/24 07:22:06;;;;;;;14.35;10.50;;;18.10;97.60;;;;;;4862150;29;20060;-75
2021/07/24 07:24:32;;;;;;;12.30;10.02;;;18.20;97.10;;;;;;4890342;29;20047;-77
2021/07/24 07:26:58;;;;;;;13.75;10.55;;;18.30;96.60;;;;;;4910889;29;20040;-77
2021/07/24 07:29:25;;;;;;;13.82;10.40;;;18.40;97.10;;;;;;4875273;29;20051;-76
2021/07/24 07:31:51;;;;;;;14.88;10.27;;;18.50;95.80;;;;;;4903597;29;20064;-78
2021/07/24 07:34:16;;;;;;;11.98;10.25;;;18.60;96.00;;;;;;4890835;29;20067;-75
2021/07/24 07:36:43;;;;;;;15.40;10.35;;;18.70;96.20;;;;;;4887127;29;20067;-77
2021/07/24 07:39:09;;;;;;;15.43;11.00;;;18.80;96.10;;;;;;4875299;29;20055;-77
2021/07/24 07:41:35;;;;;;;12.45;10.43;;;19.00;95.70;;;;;;4891594;29;20093;-78
2021/07/24 07:44:01;;;;;;;14.95;11.20;;;19.00;95.50;;;;;;4877443;29;20064;-77
2021/07/24 07:46:27;;;;;;;14.80;11.18;;;19.10;95.40;;;;;;4875648;29;20060;-77
2021/07/24 07:48:53;;;;;;;13.63;10.70;;;19.10;94.90;;;;;;4844322;29;20048;-76
2021/07/24 07:51:18;;;;;;;12.18;9.80;;;19.20;94.20;;;;;;4859495;29;20051;-77
2021/07/24 07:53:44;;;;;;;13.30;9.68;;;19.20;94.50;;;;;;4908656;29;20120;-77
2021/07/24 07:56:10;;;;;;;14.07;10.85;;;19.30;95.00;;;;;;4890879;29;20044;-77
2021/07/24 07:58:37;;;;;;;13.80;10.48;;;19.50;94.80;;;;;;4877143;29;20036;-76
2021/07/24 08:01:10;;;;;;;14.85;10.95;;;19.60;93.90;;;;;;4887650;29;20107;-75
2021/07/24 08:03:36;;;;;;;13.43;9.90;;;19.60;93.90;;;;;;4888342;29;20040;-75
2021/07/24 08:06:06;;;;;;;14.15;10.48;;;19.70;93.70;;;;;;4888186;29;20044;-79
2021/07/24 08:08:33;;;;;;;17.15;10.63;;;19.70;94.00;;;;;;4891216;29;20040;-75
2021/07/24 08:10:59;;;;;;;11.40;9.23;;;19.80;94.40;;;;;;4891519;29;20800;-76
2021/07/24 08:13:26;;;;;;;12.38;9.65;;;20.00;93.50;;;;;;4878597;29;20101;-78
2021/07/24 08:15:54;;;;;;;11.32;8.93;;;20.10;93.40;;;;;;4876234;29;20072;-77
2021/07/24 08:18:21;;;;;;;11.68;9.32;;;20.20;93.10;;;;;;4890579;29;20047;-76
2021/07/24 08:20:47;;;;;;;12.55;9.02;;;20.30;92.80;;;;;;4890813;29;20123;-77
2021/07/24 08:23:13;;;;;;;12.60;9.63;;;20.40;92.70;;;;;;4858772;29;20044;-78
2021/07/24 08:25:43;;;;;;;13.88;9.88;;;20.60;92.90;;;;;;4880235;29;20099;-77
2021/07/24 08:28:09;;;;;;;;;;;20.70;91.60;;;;;;4877163;29;20827;-78
2021/07/24 08:30:35;;;;;;;11.20;9.10;;;20.80;91.50;;;;;;4895053;29;19962;-79
2021/07/24 08:33:01;;;;;;;10.85;8.75;;;20.90;91.50;;;;;;4865413;29;20072;-79
2021/07/24 08:35:28;;;;;;;12.27;8.85;;;21.00;92.10;;;;;;4907856;29;20078;-85
2021/07/24 08:37:54;;;;;;;10.93;8.48;;;21.10;91.80;;;;;;4878599;29;20044;-85
2021/07/24 08:40:19;;;;;;;10.77;8.15;;;21.20;91.00;;;;;;4862523;29;20052;-77
2021/07/24 08:42:46;;;;;;;11.60;9.15;;;21.30;91.20;;;;;;4878088;29;20123;-78
2021/07/24 08:45:14;;;;;;;12.55;9.25;;;21.30;90.90;;;;;;4894230;29;20122;-78
2021/07/24 08:47:40;;;;;;;11.57;8.75;;;21.30;90.40;;;;;;4887744;29;20052;-78
2021/07/24 08:50:11;;;;;;;12.15;9.02;;;21.40;90.30;;;;;;4870766;29;20092;-78
2021/07/24 08:52:37;;;;;;;10.55;9.40;;;21.40;90.00;;;;;;4884154;29;20053;-79
2021/07/24 08:55:05;;;;;;;10.82;8.98;;;21.50;90.20;;;;;;4861359;29;20053;-80
2021/07/24 08:57:40;;;;;;;10.60;8.38;;;21.60;90.30;;;;;;4887777;29;20512;-82
2021/07/24 09:00:16;;;;;;;11.88;8.82;;;21.70;90.80;;;;;;4889574;29;20056;-85
2021/07/24 09:02:44;;;;;;;14.10;8.88;;;21.80;90.20;;;;;;4875402;29;20049;-85
2021/07/24 09:05:12;;;;;;;13.27;9.50;;;21.90;89.80;;;;;;4861155;29;20048;-85
2021/07/24 09:07:42;;;;;;;11.77;8.90;;;21.90;88.20;;;;;;4873384;29;20052;-85
2021/07/24 09:10:09;;;;;;;11.65;8.80;;;21.90;88.90;;;;;;4890953;29;20136;-84
2021/07/24 09:12:36;;;;;;;12.30;9.55;;;21.90;88.20;;;;;;4856604;29;20131;-88
2021/07/24 09:15:11;;;;;;;11.55;9.88;;;21.90;89.00;;;;;;4890882;29;20103;-80
2021/07/24 09:17:37;;;;;;;13.50;9.38;;;22.00;88.80;;;;;;4872706;29;20045;-79
2021/07/24 09:20:04;;;;;;;12.13;9.07;;;21.90;89.40;;;;;;4895227;29;20547;-79
2021/07/24 09:22:38;;;;;;;11.52;9.30;;;22.00;88.60;;;;;;4891354;29;20032;-78
2021/07/24 09:25:15;;;;;;;12.50;8.85;;;22.10;89.30;;;;;;4905195;29;20068;-77
2021/07/24 09:27:42;;;;;;;12.73;9.45;;;22.10;87.80;;;;;;4875489;29;20160;-79
2021/07/24 09:30:28;;;;;;;12.50;9.40;;;22.10;86.90;;;;;;4907753;29;20064;-78
2021/07/24 09:33:04;;;;;;;11.48;9.07;;;22.20;88.20;;;;;;4913234;29;20040;-78
2021/07/24 09:35:41;;;;;;;10.05;8.52;;;22.30;88.20;;;;;;4904491;29;20053;-76
2021/07/24 09:38:13;;;;;;;12.80;9.45;;;22.40;89.00;;;;;;4861656;29;20079;-80
2021/07/24 09:40:40;;;;;;;11.30;8.40;;;22.50;87.90;;;;;;4910286;29;20044;-78
2021/07/24 09:43:28;;;;;;;13.10;9.20;;;22.50;87.50;;;;;;4863445;29;20385;-78
2021/07/24 09:46:23;;;;;;;12.00;9.57;;;22.50;88.30;;;;;;4894705;29;20127;-79
2021/07/24 09:48:51;;;;;;;11.95;9.63;;;22.50;87.10;;;;;;4897231;29;20532;-79
2021/07/24 09:51:37;;;;;;;12.13;9.85;;;22.50;87.30;;;;;;4905349;29;20083;-81
2021/07/24 09:54:04;;;;;;;13.95;9.27;;;22.50;85.50;;;;;;4886835;29;20411;-80
2021/07/24 09:56:46;;;;;;;11.07;8.57;;;22.40;87.20;;;;;;4878828;29;20055;-79
2021/07/24 09:59:28;;;;;;;11.40;8.77;;;22.60;88.60;;;;;;4890663;29;20377;-79
2021/07/24 10:02:04;;;;;;;12.00;9.25;;;22.80;87.30;;;;;;4896517;29;20052;-79
2021/07/24 10:04:40;;;;;;;12.18;8.90;;;22.80;87.60;;;;;;4910862;29;20040;-79
2021/07/24 10:07:10;;;;;;;10.88;8.23;;;23.10;88.50;;;;;;4877863;29;20123;-80
2021/07/24 10:09:36;;;;;;;;;;;23.30;88.50;;;;;;4889652;29;20319;-76
2021/07/24 10:12:05;;;;;;;11.30;8.90;;;23.40;84.60;;;;;;4911422;29;20560;-77
2021/07/24 10:14:33;;;;;;;11.50;9.05;;;23.50;86.80;;;;;;4908525;29;20689;-79
2021/07/24 10:16:59;;;;;;;12.27;8.38;;;23.40;85.10;;;;;;4876724;29;20388;-78
2021/07/24 10:19:26;;;;;;;9.75;8.75;;;23.30;86.20;;;;;;4878690;29;20048;-83
2021/07/24 10:21:55;;;;;;;10.70;9.38;;;23.20;83.40;;;;;;4874102;29;20366;-86
2021/07/24 10:24:22;;;;;;;10.27;9.18;;;23.20;85.20;;;;;;4912672;29;20491;-84
2021/07/24 10:27:06;;;;;;;9.23;8.25;;;23.20;86.40;;;;;;4909117;29;20106;-79
2021/07/24 10:30:05;;;;;;;11.02;8.55;;;23.30;84.50;;;;;;4910357;29;20036;-79
2021/07/24 10:32:34;;;;;;;10.05;8.65;;;23.40;86.10;;;;;;4910697;29;20043;-78
2021/07/24 10:35:07;;;;;;;12.50;8.48;;;23.60;85.40;;;;;;4892616;29;20500;-80
2021/07/24 10:37:38;;;;;;;12.32;9.30;;;23.80;84.10;;;;;;4879330;29;20032;-79
2021/07/24 10:40:27;;;;;;;11.02;9.32;;;23.90;85.40;;;;;;4892704;29;20052;-79
2021/07/24 10:42:54;;;;;;;10.55;8.80;;;24.00;83.80;;;;;;4898482;29;20087;-79
2021/07/24 10:45:37;;;;;;;11.48;9.88;;;24.20;81.50;;;;;;4891937;29;20119;-79
2021/07/24 10:48:16;;;;;;;11.23;9.80;;;24.30;82.50;;;;;;4894998;29;20159;-78
2021/07/24 10:50:54;;;;;;;13.10;9.77;;;24.30;81.60;;;;;;4902466;29;20491;-80
2021/07/24 10:53:24;;;;;;;14.48;10.00;;;24.20;81.60;;;;;;4906894;29;20111;-80
2021/07/24 10:55:52;;;;;;;9.48;8.48;;;24.10;81.90;;;;;;4877232;29;20048;-81
2021/07/24 10:58:19;;;;;;;11.73;10.00;;;24.10;84.30;;;;;;4876996;29;20067;-81
2021/07/24 11:00:52;;;;;;;13.95;9.60;;;24.20;83.30;;;;;;4891650;29;20115;-82
2021/07/24 11:03:35;;;;;;;12.55;10.55;;;24.50;82.60;;;;;;4909469;29;20044;-81
2021/07/24 11:06:20;;;;;;;12.18;10.57;;;24.60;80.90;;;;;;4874242;29;20102;-82
2021/07/24 11:09:14;;;;;;;12.60;10.20;;;24.80;79.70;;;;;;4894718;29;20044;-87
2021/07/24 11:11:47;;;;;;;12.88;10.13;;;24.80;79.10;;;;;;4894889;29;20048;-87
2021/07/24 11:14:50;;;;;;;13.00;10.45;;;24.80;77.70;;;;;;4895154;29;20126;-83
2021/07/24 11:17:20;;;;;;;13.20;10.88;;;24.70;79.00;;;;;;4894934;29;20048;-84
2021/07/24 11:19:49;;;;;;;12.07;10.02;;;24.80;79.90;;;;;;4859749;29;20415;-80
2021/07/24 11:22:37;;;;;;;11.05;9.90;;;24.70;80.20;;;;;;4895654;29;20075;-81
2021/07/24 11:25:03;;;;;;;12.95;10.15;;;24.80;82.10;;;;;;4891744;29;20043;-79
2021/07/24 11:27:35;;;;;;;16.52;9.75;;;24.90;79.30;;;;;;4889063;29;20070;-81
2021/07/24 11:30:09;;;;;;;13.88;10.63;;;24.90;78.80;;;;;;4904538;29;20040;-81
2021/07/24 11:32:42;;;;;;;13.82;10.55;;;24.80;79.70;;;;;;4909988;29;20068;-81
2021/07/24 11:35:13;;;;;;;15.50;10.95;;;24.70;77.30;;;;;;4876453;29;20066;-81
2021/07/24 11:37:53;;;;;;;13.55;10.45;;;24.70;79.10;;;;;;4877464;29;20036;-81
2021/07/24 11:40:26;;;;;;;14.23;10.02;;;24.70;80.10;;;;;;4860337;29;20059;-81
2021/07/24 11:42:55;;;;;;;12.75;10.07;;;24.60;78.40;;;;;;4894454;29;20132;-81
2021/07/24 11:45:21;;;;;;;12.23;10.98;;;24.60;79.00;;;;;;4889855;29;20175;-82
2021/07/24 11:47:47;;;;;;;11.30;9.93;;;24.60;79.40;;;;;;4905597;29;20044;-80
2021/07/24 11:50:22;;;;;;;12.77;10.38;;;24.60;81.20;;;;;;4891431;29;20056;-78
2021/07/24 11:52:50;;;;;;;11.90;10.70;;;24.70;81.10;;;;;;4860575;29;20044;-80
2021/07/24 11:55:26;;;;;;;11.27;10.00;;;24.80;81.10;;;;;;4893689;29;20131;-84
2021/07/24 11:58:09;;;;;;;11.25;9.98;;;24.80;79.60;;;;;;4876937;29;20115;-79
2021/07/24 12:00:39;;;;;;;12.93;10.13;;;24.80;80.00;;;;;;4892871;29;20127;-79
2021/07/24 12:03:25;;;;;;;14.35;10.27;;;24.80;80.60;;;;;;4878420;29;20044;-81
2021/07/24 12:06:02;;;;;;;11.10;9.90;;;24.80;80.60;;;;;;4908909;29;20071;-80
2021/07/24 12:08:29;;;;;;;12.27;9.18;;;24.80;80.80;;;;;;4913897;29;20036;-78
2021/07/24 12:10:56;;;;;;;11.30;9.50;;;24.90;81.30;;;;;;4892434;29;20044;-83
2021/07/24 12:13:24;;;;;;;12.35;9.43;;;25.00;79.50;;;;;;4895292;29;20075;-81
2021/07/24 12:15:55;;;;;;;11.18;9.60;;;25.00;78.60;;;;;;4896503;29;20873;-83
2021/07/24 12:18:21;;;;;;;;;;;25.00;77.80;;;;;;4912307;29;20039;-82
2021/07/24 12:20:49;;;;;;;13.43;9.05;;;24.80;78.40;;;;;;4914657;29;20283;-81
2021/07/24 12:23:23;;;;;;;11.45;10.25;;;24.80;79.70;;;;;;4911240;29;20041;-80
2021/07/24 12:26:31;;;;;;;12.43;10.15;;;24.80;79.70;;;;;;4879504;29;20043;-84
2021/07/24 12:28:58;;;;;;;13.10;9.40;;;24.80;80.70;;;;;;4863129;29;20045;-85
2021/07/24 12:31:25;;;;;;;11.55;9.75;;;24.80;78.70;;;;;;4886757;29;20063;-83
2021/07/24 12:33:56;;;;;;;12.27;9.63;;;24.80;77.90;;;;;;4910563;29;20069;-81
2021/07/24 12:36:23;;;;;;;14.93;9.98;;;24.80;79.20;;;;;;4895267;29;20040;-84
2021/07/24 12:38:54;;;;;;;11.70;9.15;;;24.90;80.20;;;;;;4895643;29;20411;-80
2021/07/24 12:41:31;;;;;;;10.35;9.07;;;24.90;80.00;;;;;;4897738;29;20044;-82
2021/07/24 12:44:09;;;;;;;10.18;8.90;;;25.00;80.70;;;;;;4914013;29;20043;-81